createdAt,value
2023-03-06T00:01:20.603Z,-3.16
2023-03-06T00:03:52.285Z,-3.07
2023-03-06T00:06:24.988Z,-3.01
2023-03-06T00:08:56.616Z,-2.94
2023-03-06T00:11:28.398Z,-2.93
2023-03-06T00:14:00.001Z,-2.81
2023-03-06T00:16:31.726Z,-2.78
2023-03-06T00:19:03.240Z,-2.77
2023-03-06T00:21:34.859Z,-2.71
2023-03-06T00:24:06.550Z,-2.63
2023-03-06T00:26:38.154Z,-2.52
2023-03-06T00:29:10.387Z,-2.52
2023-03-06T00:31:45.055Z,-2.57
2023-03-06T00:34:15.157Z,-2.58
2023-03-06T00:36:47.537Z,-2.78
2023-03-06T00:39:19.033Z,-2.84
2023-03-06T00:41:50.489Z,-2.88
2023-03-06T00:44:21.964Z,-2.83
2023-03-06T00:46:54.571Z,-2.87
2023-03-06T00:49:26.992Z,-2.90
2023-03-06T00:51:59.075Z,-2.83
2023-03-06T00:54:30.730Z,-2.77
2023-03-06T00:57:02.198Z,-2.82
2023-03-06T00:59:34.345Z,-2.76
2023-03-06T01:02:06.879Z,-2.77
2023-03-06T01:04:39.001Z,-2.72
2023-03-06T01:07:10.814Z,-2.88
2023-03-06T01:09:43.227Z,-2.95
2023-03-06T01:12:15.024Z,-2.97
2023-03-06T01:14:46.973Z,-3.02
2023-03-06T01:17:18.763Z,-3.06
2023-03-06T01:19:50.404Z,-3.03
2023-03-06T01:22:22.638Z,-2.95
2023-03-06T01:24:54.803Z,-2.92
2023-03-06T01:27:29.097Z,-2.95
2023-03-06T01:30:00.766Z,-2.94
2023-03-06T01:32:33.396Z,-2.89
2023-03-06T01:35:05.877Z,-2.95
2023-03-06T01:37:38.631Z,-3.10
2023-03-06T01:40:14.077Z,-3.13
2023-03-06T01:42:46.929Z,-3.16
2023-03-06T01:45:53.210Z,-3.14
2023-03-06T01:48:26.285Z,-3.15
2023-03-06T01:50:57.969Z,-3.28
2023-03-06T01:53:30.236Z,-3.36
2023-03-06T01:56:03.679Z,-3.42
2023-03-06T01:58:35.949Z,-3.50
2023-03-06T02:01:08.920Z,-3.53
2023-03-06T02:03:42.897Z,-3.47
2023-03-06T02:06:20.060Z,-3.42
2023-03-06T02:08:53.875Z,-3.35
2023-03-06T02:11:26.990Z,-3.38
2023-03-06T02:13:58.819Z,-3.47
2023-03-06T02:16:33.416Z,-3.42
2023-03-06T02:19:06.824Z,-3.52
2023-03-06T02:21:39.816Z,-3.70
2023-03-06T02:24:29.793Z,-3.84
2023-03-06T02:27:04.808Z,-3.80
2023-03-06T02:29:37.051Z,-3.78
2023-03-06T02:32:09.965Z,-3.85
2023-03-06T02:34:57.018Z,-3.86
2023-03-06T02:37:30.870Z,-3.75
2023-03-06T02:40:09.754Z,-3.73
2023-03-06T02:42:46.997Z,-3.68
2023-03-06T02:45:23.645Z,-3.84
2023-03-06T02:47:55.193Z,-3.76
2023-03-06T02:50:27.054Z,-3.75
2023-03-06T02:52:58.616Z,-3.94
2023-03-06T02:55:30.905Z,-4.02
2023-03-06T02:58:03.015Z,-4.05
2023-03-06T03:00:36.394Z,-4.14
2023-03-06T03:03:09.393Z,-4.24
2023-03-06T03:05:40.965Z,-4.27
2023-03-06T03:08:12.909Z,-4.25
2023-03-06T03:10:44.941Z,-4.19
2023-03-06T03:13:16.553Z,-4.25
2023-03-06T03:15:48.194Z,-4.22
2023-03-06T03:18:19.764Z,-4.24
2023-03-06T03:20:51.877Z,-4.30
2023-03-06T03:23:23.450Z,-4.32
2023-03-06T03:25:55.210Z,-4.25
2023-03-06T03:28:27.204Z,-4.36
2023-03-06T03:31:03.710Z,-4.54
2023-03-06T03:33:36.077Z,-4.56
2023-03-06T03:36:09.431Z,-4.55
2023-03-06T03:38:41.307Z,-4.68
2023-03-06T03:41:13.267Z,-4.76
2023-03-06T03:43:45.803Z,-4.78
2023-03-06T03:46:17.470Z,-4.83
2023-03-06T03:48:49.604Z,-4.95
2023-03-06T03:51:22.347Z,-5.09
2023-03-06T03:53:53.970Z,-5.12
2023-03-06T03:56:25.677Z,-4.95
2023-03-06T03:58:58.249Z,-4.96
2023-03-06T04:01:30.529Z,-5.12
2023-03-06T04:04:02.143Z,-5.17
2023-03-06T04:06:34.138Z,-5.25
2023-03-06T04:09:06.166Z,-5.23
2023-03-06T04:11:38.674Z,-5.14
2023-03-06T04:14:10.651Z,-5.21
2023-03-06T04:16:42.309Z,-5.24
2023-03-06T04:19:13.953Z,-5.15
2023-03-06T04:21:45.961Z,-5.19
2023-03-06T04:24:18.400Z,-5.22
2023-03-06T04:26:49.984Z,-5.12
2023-03-06T04:29:22.903Z,-5.12
2023-03-06T04:33:13.129Z,-5.20
2023-03-06T04:39:39.774Z,-4.61
2023-03-06T04:42:11.901Z,-4.67
2023-03-06T04:44:43.978Z,-4.70
2023-03-06T04:47:18.137Z,-4.74
2023-03-06T04:49:50.536Z,-4.79
2023-03-06T04:52:22.318Z,-4.75
2023-03-06T04:54:53.900Z,-4.74
2023-03-06T04:57:25.917Z,-4.74
2023-03-06T04:59:57.472Z,-4.82
2023-03-06T05:02:29.650Z,-4.96
2023-03-06T05:05:02.935Z,-4.93
2023-03-06T05:07:35.145Z,-5.00
2023-03-06T05:10:08.066Z,-5.00
2023-03-06T05:12:41.358Z,-4.96
2023-03-06T05:15:15.846Z,-5.01
2023-03-06T05:17:48.162Z,-4.97
2023-03-06T05:20:20.254Z,-4.96
2023-03-06T05:22:51.816Z,-4.99
2023-03-06T05:25:24.043Z,-4.99
2023-03-06T05:27:55.691Z,-4.98
2023-03-06T05:30:27.919Z,-4.87
2023-03-06T05:32:59.583Z,-4.78
2023-03-06T05:35:32.023Z,-4.69
2023-03-06T05:38:04.268Z,-4.53
2023-03-06T05:40:35.863Z,-4.45
2023-03-06T05:43:09.039Z,-4.41
2023-03-06T05:45:41.532Z,-4.37
2023-03-06T05:48:15.114Z,-4.32
2023-03-06T05:50:47.110Z,-4.24
2023-03-06T05:53:19.196Z,-3.90
2023-03-06T05:55:59.593Z,-3.38
2023-03-06T05:58:33.212Z,-2.77
2023-03-06T06:01:12.968Z,-2.17
2023-03-06T06:03:44.925Z,-1.67
2023-03-06T06:06:18.272Z,-1.35
2023-03-06T06:08:50.508Z,-1.29
2023-03-06T06:11:22.486Z,-1.30
2023-03-06T06:13:54.091Z,-1.36
2023-03-06T06:16:25.705Z,-1.49
2023-03-06T06:18:58.785Z,-1.63
2023-03-06T06:21:30.533Z,-1.65
2023-03-06T06:24:02.591Z,-1.64
2023-03-06T06:26:34.442Z,-1.72
2023-03-06T06:29:07.309Z,-1.86
2023-03-06T06:31:39.076Z,-1.87
2023-03-06T06:34:12.284Z,-1.89
2023-03-06T06:36:46.235Z,-1.90
2023-03-06T06:39:20.306Z,-1.97
2023-03-06T06:42:09.994Z,-2.00
2023-03-06T06:44:45.344Z,-1.91
2023-03-06T06:47:22.861Z,-1.81
2023-03-06T06:49:57.515Z,-1.78
2023-03-06T06:52:29.003Z,-1.70
2023-03-06T06:55:00.710Z,-1.63
2023-03-06T06:57:32.554Z,-1.61
2023-03-06T07:00:05.438Z,-1.49
2023-03-06T07:02:38.709Z,-1.51
2023-03-06T07:05:13.159Z,-1.52
2023-03-06T07:07:45.253Z,-1.46
2023-03-06T07:10:20.734Z,-1.33
2023-03-06T07:12:52.670Z,-1.18
2023-03-06T07:15:27.219Z,-1.00
2023-03-06T07:17:58.769Z,-1.03
2023-03-06T07:20:32.228Z,-1.01
2023-03-06T07:23:05.257Z,-1.01
2023-03-06T07:25:38.655Z,-0.93
2023-03-06T07:28:10.725Z,-0.79
2023-03-06T07:30:43.819Z,-0.63
2023-03-06T07:33:16.385Z,-0.55
2023-03-06T07:35:47.925Z,-0.33
2023-03-06T07:38:20.993Z,-0.06
2023-03-06T07:40:56.795Z,0.22
2023-03-06T07:43:28.925Z,0.40
2023-03-06T07:46:01.777Z,0.59
2023-03-06T07:48:34.359Z,0.73
2023-03-06T07:51:09.029Z,0.85
2023-03-06T07:53:40.817Z,0.74
2023-03-06T07:56:14.098Z,0.62
2023-03-06T07:58:47.290Z,0.57
2023-03-06T08:01:21.306Z,0.51
2023-03-06T08:03:53.306Z,0.79
2023-03-06T08:06:26.827Z,0.82
2023-03-06T08:08:59.269Z,0.71
2023-03-06T08:11:33.552Z,0.71
2023-03-06T08:14:05.417Z,0.84
2023-03-06T08:16:38.651Z,0.85
2023-03-06T08:19:10.935Z,0.86
2023-03-06T08:21:44.117Z,0.91
2023-03-06T08:24:17.049Z,0.98
2023-03-06T08:26:49.305Z,0.94
2023-03-06T08:29:21.660Z,1.02
2023-03-06T08:31:53.343Z,1.09
2023-03-06T08:34:27.202Z,1.14
2023-03-06T08:36:59.649Z,1.11
2023-03-06T08:39:31.166Z,1.18
2023-03-06T08:42:02.942Z,1.09
2023-03-06T08:44:35.037Z,1.06
2023-03-06T08:47:07.610Z,1.12
2023-03-06T08:49:41.043Z,1.21
2023-03-06T08:52:13.122Z,1.27
2023-03-06T08:54:44.995Z,1.37
2023-03-06T08:57:18.225Z,1.47
2023-03-06T08:59:50.202Z,1.56
2023-03-06T09:02:21.736Z,1.51
2023-03-06T09:04:54.255Z,1.54
2023-03-06T09:07:26.642Z,1.64
2023-03-06T09:10:00.544Z,1.58
2023-03-06T09:12:40.354Z,1.44
2023-03-06T09:15:19.409Z,1.56
2023-03-06T09:17:51.819Z,1.57
2023-03-06T09:20:24.541Z,1.55
2023-03-06T09:22:56.684Z,1.65
2023-03-06T09:25:28.565Z,1.55
2023-03-06T09:28:10.995Z,1.47
2023-03-06T09:30:44.709Z,1.48
2023-03-06T09:33:16.844Z,1.42
2023-03-06T09:35:53.742Z,1.54
2023-03-06T09:38:27.762Z,1.55
2023-03-06T09:43:42.250Z,1.48
2023-03-06T09:46:25.021Z,1.46
2023-03-06T09:49:13.806Z,1.41
2023-03-06T09:51:58.730Z,1.51
2023-03-06T09:54:38.823Z,1.56
2023-03-06T09:57:20.420Z,1.45
2023-03-06T09:59:56.475Z,1.47
2023-03-06T10:02:36.968Z,1.43
2023-03-06T10:05:14.897Z,1.39
2023-03-06T10:07:52.724Z,1.26
2023-03-06T10:10:28.078Z,1.27
2023-03-06T10:13:13.831Z,1.25
2023-03-06T10:15:48.824Z,1.22
2023-03-06T10:18:20.611Z,1.19
2023-03-06T10:21:13.442Z,1.33
2023-03-06T10:23:59.996Z,1.49
2023-03-06T10:26:39.427Z,1.53
2023-03-06T10:29:36.246Z,1.50
2023-03-06T10:32:25.667Z,1.51
2023-03-06T10:35:01.468Z,1.50
2023-03-06T10:37:33.321Z,1.56
2023-03-06T10:40:15.101Z,1.63
2023-03-06T10:42:46.996Z,1.65
2023-03-06T10:45:19.682Z,1.58
2023-03-06T10:47:51.381Z,1.53
2023-03-06T10:50:32.031Z,1.50
2023-03-06T10:53:06.302Z,1.52
2023-03-06T10:55:39.326Z,1.56
2023-03-06T10:58:27.062Z,1.50
2023-03-06T11:01:20.432Z,1.54
2023-03-06T11:03:53.322Z,1.54
2023-03-06T11:06:37.181Z,1.52
2023-03-06T11:09:25.805Z,1.40
2023-03-06T11:12:24.054Z,1.33
2023-03-06T11:15:18.837Z,1.32
2023-03-06T11:18:01.141Z,1.53
2023-03-06T11:20:50.536Z,1.54
2023-03-06T11:23:30.891Z,1.55
2023-03-06T11:26:09.482Z,1.57
2023-03-06T11:28:47.829Z,1.60
2023-03-06T11:31:22.794Z,1.66
2023-03-06T11:34:00.616Z,1.66
2023-03-06T11:36:39.292Z,1.64
2023-03-06T11:39:26.295Z,1.53
2023-03-06T11:42:06.979Z,1.58
2023-03-06T11:44:51.202Z,1.62
2023-03-06T11:47:27.616Z,1.59
2023-03-06T11:50:15.256Z,1.65
2023-03-06T11:52:53.038Z,1.73
2023-03-06T11:55:47.807Z,1.80
2023-03-06T11:58:42.543Z,1.74
2023-03-06T12:01:22.479Z,1.87
2023-03-06T12:04:20.252Z,1.92
2023-03-06T12:07:00.411Z,1.98
2023-03-06T12:09:45.032Z,2.00
2023-03-06T12:12:43.161Z,1.97
2023-03-06T12:15:32.238Z,1.99
2023-03-06T12:18:23.532Z,2.06
2023-03-06T12:21:06.120Z,2.15
2023-03-06T12:24:00.814Z,2.21
2023-03-06T12:26:48.657Z,2.44
2023-03-06T12:29:37.690Z,2.60
2023-03-06T12:32:18.713Z,2.84
2023-03-06T12:35:07.368Z,2.80
2023-03-06T12:37:53.908Z,2.70
2023-03-06T12:40:42.290Z,2.76
2023-03-06T12:43:36.137Z,2.85
2023-03-06T12:46:15.631Z,2.98
2023-03-06T12:48:50.300Z,3.05
2023-03-06T12:51:24.233Z,3.06
2023-03-06T12:53:59.087Z,3.09
2023-03-06T12:56:30.425Z,3.11
2023-03-06T12:59:03.623Z,3.02
2023-03-06T13:01:55.788Z,3.04
2023-03-06T13:04:57.920Z,3.10
2023-03-06T13:07:45.443Z,3.29
2023-03-06T13:10:27.714Z,3.33
2023-03-06T13:13:03.776Z,3.37
2023-03-06T13:15:48.282Z,3.45
2023-03-06T13:18:58.627Z,3.40
2023-03-06T13:22:03.762Z,3.33
2023-03-06T13:24:37.544Z,3.40
2023-03-06T13:27:12.879Z,3.36
2023-03-06T13:30:26.178Z,3.38
2023-03-06T13:32:58.881Z,3.37
2023-03-06T13:35:56.946Z,3.48
2023-03-06T13:38:37.704Z,3.39
2023-03-06T13:41:55.062Z,3.35
2023-03-06T13:44:53.638Z,3.46
2023-03-06T13:48:10.628Z,3.50
2023-03-06T13:50:39.925Z,3.67
2023-03-06T13:53:59.416Z,3.61
2023-03-06T13:57:03.650Z,3.63
2023-03-06T14:00:14.730Z,3.70
2023-03-06T14:03:05.041Z,3.77
2023-03-06T14:05:46.225Z,3.75
2023-03-06T14:08:20.429Z,3.64
2023-03-06T14:11:01.832Z,3.68
2023-03-06T14:13:47.107Z,3.69
2023-03-06T14:16:26.926Z,3.65
2023-03-06T14:19:00.470Z,3.54
2023-03-06T14:21:39.011Z,3.40
2023-03-06T14:24:20.382Z,3.43
2023-03-06T14:26:53.364Z,3.44
2023-03-06T14:29:27.030Z,3.43
2023-03-06T14:32:00.364Z,3.39
2023-03-06T14:34:41.162Z,3.41
2023-03-06T14:37:25.124Z,3.44
2023-03-06T14:39:56.905Z,3.43
2023-03-06T14:42:30.304Z,3.49
2023-03-06T14:45:16.398Z,3.48
2023-03-06T14:47:53.372Z,3.35
2023-03-06T14:50:29.616Z,3.42
2023-03-06T14:53:07.019Z,3.48
2023-03-06T14:55:40.140Z,3.39
2023-03-06T14:58:17.917Z,3.45
2023-03-06T15:00:54.868Z,3.43
2023-03-06T15:03:29.675Z,3.42
2023-03-06T15:06:01.757Z,3.27
2023-03-06T15:08:37.746Z,3.19
2023-03-06T15:11:10.392Z,3.17
2023-03-06T15:13:42.780Z,3.17
2023-03-06T15:16:30.102Z,3.28
2023-03-06T15:19:04.055Z,3.24
2023-03-06T15:21:38.805Z,3.27
2023-03-06T15:24:30.409Z,3.23
2023-03-06T15:27:04.977Z,3.22
2023-03-06T15:29:40.243Z,3.15
2023-03-06T15:32:31.173Z,3.09
2023-03-06T15:35:32.466Z,3.03
2023-03-06T15:38:05.138Z,2.87
2023-03-06T15:40:36.799Z,2.86
2023-03-06T15:43:12.984Z,2.85
2023-03-06T15:45:44.628Z,2.76
2023-03-06T15:48:20.356Z,2.70
2023-03-06T15:50:52.016Z,2.61
2023-03-06T15:53:24.630Z,2.45
2023-03-06T15:55:56.683Z,2.26
2023-03-06T15:58:33.542Z,2.11
2023-03-06T16:01:05.531Z,2.07
2023-03-06T16:03:38.317Z,2.07
2023-03-06T16:06:12.240Z,2.09
2023-03-06T16:08:44.032Z,2.09
2023-03-06T16:11:32.539Z,2.10
2023-03-06T16:14:07.746Z,2.08
2023-03-06T16:16:40.894Z,2.17
2023-03-06T16:19:25.931Z,2.26
2023-03-06T16:22:00.174Z,2.24
2023-03-06T16:24:33.232Z,2.26
2023-03-06T16:27:07.650Z,2.22
2023-03-06T16:29:39.592Z,2.20
2023-03-06T16:32:13.608Z,2.13
2023-03-06T16:34:46.508Z,2.05
2023-03-06T16:37:21.158Z,2.05
2023-03-06T16:39:53.876Z,2.04
2023-03-06T16:42:26.804Z,2.01
2023-03-06T16:45:01.075Z,1.99
2023-03-06T16:47:37.932Z,1.89
2023-03-06T16:50:22.310Z,1.86
2023-03-06T16:52:57.208Z,1.88
2023-03-06T16:55:31.133Z,1.82
2023-03-06T16:58:04.849Z,1.72
2023-03-06T17:00:39.596Z,1.71
2023-03-06T17:03:17.600Z,1.62
2023-03-06T17:05:50.225Z,1.63
2023-03-06T17:08:22.050Z,1.64
2023-03-06T17:10:53.730Z,1.60
2023-03-06T17:13:27.509Z,1.48
2023-03-06T17:16:02.411Z,1.57
2023-03-06T17:18:32.905Z,1.58
2023-03-06T17:21:04.721Z,1.57
2023-03-06T17:23:37.866Z,1.59
2023-03-06T17:26:13.127Z,1.56
2023-03-06T17:28:46.126Z,1.50
2023-03-06T17:31:19.937Z,1.49
2023-03-06T17:33:54.701Z,1.50
2023-03-06T17:36:28.559Z,1.44
2023-03-06T17:39:02.289Z,1.48
2023-03-06T17:41:35.475Z,1.60
2023-03-06T17:44:11.473Z,1.60
2023-03-06T17:46:43.993Z,1.59
2023-03-06T17:49:20.092Z,1.56
2023-03-06T17:51:54.184Z,1.61
2023-03-06T17:54:30.790Z,1.68
2023-03-06T17:57:06.545Z,1.67
2023-03-06T17:59:40.438Z,1.69
2023-03-06T18:02:16.118Z,1.68
2023-03-06T18:04:52.570Z,1.64
2023-03-06T18:07:27.343Z,1.59
2023-03-06T18:10:19.049Z,1.73
2023-03-06T18:13:02.408Z,1.82
2023-03-06T18:15:40.520Z,1.82
2023-03-06T18:18:18.343Z,1.90
2023-03-06T18:20:51.954Z,1.97
2023-03-06T18:23:27.680Z,1.97
2023-03-06T18:26:18.332Z,1.86
2023-03-06T18:28:55.994Z,1.78
2023-03-06T18:31:34.816Z,1.83
2023-03-06T18:34:12.315Z,1.88
2023-03-06T18:36:52.139Z,1.96
2023-03-06T18:39:26.190Z,1.89
2023-03-06T18:42:01.937Z,1.93
2023-03-06T18:44:40.045Z,1.85
2023-03-06T18:47:21.586Z,1.99
2023-03-06T18:49:56.875Z,2.03
2023-03-06T18:52:32.246Z,2.08
2023-03-06T18:55:06.822Z,2.15
2023-03-06T18:57:47.074Z,2.20
2023-03-06T19:00:34.325Z,2.07
2023-03-06T19:03:07.165Z,2.05
2023-03-06T19:05:54.309Z,2.02
2023-03-06T19:08:31.006Z,1.97
2023-03-06T19:11:07.906Z,1.97
2023-03-06T19:13:42.317Z,2.04
2023-03-06T19:16:24.246Z,2.08
2023-03-06T19:18:59.420Z,1.99
2023-03-06T19:21:39.757Z,2.04
2023-03-06T19:24:15.827Z,2.00
2023-03-06T19:26:50.212Z,1.98
2023-03-06T19:29:26.697Z,1.88
2023-03-06T19:32:02.945Z,1.83
2023-03-06T19:34:36.646Z,1.78
2023-03-06T19:37:12.657Z,1.69
2023-03-06T19:39:53.959Z,1.64
2023-03-06T19:42:27.342Z,1.65
2023-03-06T19:45:02.088Z,1.64
2023-03-06T19:47:36.968Z,1.68
2023-03-06T19:50:09.809Z,1.67
2023-03-06T19:52:46.740Z,1.66
2023-03-06T19:55:26.612Z,1.65
2023-03-06T19:58:00.667Z,1.62
2023-03-06T20:00:53.134Z,1.64
2023-03-06T20:03:27.445Z,1.70
2023-03-06T20:06:02.421Z,1.63
2023-03-06T20:08:37.303Z,1.57
2023-03-06T20:11:20.511Z,1.56
2023-03-06T20:14:01.122Z,1.52
2023-03-06T20:16:36.549Z,1.41
2023-03-06T20:19:13.010Z,1.41
2023-03-06T20:21:48.128Z,1.39
2023-03-06T20:24:23.720Z,1.41
2023-03-06T20:26:58.602Z,1.31
2023-03-06T20:29:34.541Z,1.24
2023-03-06T20:32:10.940Z,1.20
2023-03-06T20:34:45.466Z,1.23
2023-03-06T20:37:21.553Z,1.27
2023-03-06T20:39:56.599Z,1.36
2023-03-06T20:42:30.083Z,1.40
2023-03-06T20:45:09.145Z,1.34
2023-03-06T20:47:48.628Z,1.24
2023-03-06T20:50:22.862Z,1.22
2023-03-06T20:52:59.485Z,1.25
2023-03-06T20:55:39.314Z,1.23
2023-03-06T20:58:11.932Z,1.19
2023-03-06T21:00:47.022Z,1.15
2023-03-06T21:03:21.381Z,1.05
2023-03-06T21:05:55.053Z,1.15
2023-03-06T21:08:32.225Z,1.37
2023-03-06T21:11:05.120Z,1.27
2023-03-06T21:13:37.745Z,1.24
2023-03-06T21:16:11.987Z,1.39
2023-03-06T21:18:48.427Z,1.43
2023-03-06T21:21:22.497Z,1.51
2023-03-06T21:23:55.635Z,1.55
2023-03-06T21:26:29.845Z,1.45
2023-03-06T21:29:05.195Z,1.25
2023-03-06T21:31:37.637Z,1.20
2023-03-06T21:34:11.694Z,1.16
2023-03-06T21:36:44.014Z,1.24
2023-03-06T21:39:16.375Z,1.25
2023-03-06T21:41:48.217Z,1.22
2023-03-06T21:44:20.041Z,1.20
2023-03-06T21:46:51.745Z,1.27
2023-03-06T21:49:26.330Z,1.32
2023-03-06T21:51:57.821Z,1.26
2023-03-06T21:54:30.675Z,1.23
2023-03-06T21:57:02.602Z,1.15
2023-03-06T21:59:35.097Z,1.16
2023-03-06T22:02:07.027Z,1.14
2023-03-06T22:04:39.522Z,1.05
2023-03-06T22:07:11.451Z,1.12
2023-03-06T22:09:43.230Z,1.24
2023-03-06T22:12:15.669Z,1.15
2023-03-06T22:14:48.139Z,1.01
2023-03-06T22:17:19.936Z,0.90
2023-03-06T22:19:53.241Z,0.88
2023-03-06T22:22:24.948Z,0.87
2023-03-06T22:24:56.642Z,0.99
2023-03-06T22:27:30.270Z,1.27
2023-03-06T22:30:01.782Z,1.26
2023-03-06T22:32:33.661Z,1.17
2023-03-06T22:35:05.473Z,1.17
2023-03-06T22:37:36.951Z,1.19
2023-03-06T22:40:10.218Z,1.11
2023-03-06T22:42:42.245Z,1.06
2023-03-06T22:45:16.709Z,1.13
2023-03-06T22:47:48.360Z,1.18
2023-03-06T22:50:21.973Z,1.09
2023-03-06T22:52:53.761Z,1.04
2023-03-06T22:55:25.611Z,0.94
2023-03-06T22:57:57.352Z,0.86
2023-03-06T23:00:29.212Z,0.81
2023-03-06T23:03:01.552Z,0.90
2023-03-06T23:05:33.224Z,0.85
2023-03-06T23:08:05.369Z,0.75
2023-03-06T23:10:40.915Z,0.62
2023-03-06T23:13:12.785Z,0.56
2023-03-06T23:15:44.312Z,0.74
2023-03-06T23:18:15.978Z,0.74
2023-03-06T23:20:48.547Z,0.71
2023-03-06T23:23:20.123Z,0.69
2023-03-06T23:25:52.302Z,0.74
2023-03-06T23:28:24.318Z,0.66
2023-03-06T23:30:56.357Z,0.59
2023-03-06T23:33:28.891Z,0.53
2023-03-06T23:36:06.019Z,0.50
2023-03-06T23:38:37.865Z,0.41
2023-03-06T23:41:11.966Z,0.39
2023-03-06T23:43:43.864Z,0.25
2023-03-06T23:46:16.835Z,0.29
2023-03-06T23:48:49.388Z,0.44
2023-03-06T23:51:23.520Z,0.55
2023-03-06T23:53:59.798Z,0.44
2023-03-06T23:56:33.408Z,0.32
2023-03-06T23:59:05.253Z,0.25
